Terminal Aerodrome Forecast
Issued by NWS Chicago, IL

Home | Current Version | Previous Version | Text Only | Print | Product List | Glossary On
Versions: 1 2 3 4 5 6 7 8 9 10 11 12 13 14 15 16 17 18 19 20 21 22 23 24 25 26 27 28 29 30 31 32 33 34 35 36
000
FTUS43 KLOT 011700
TAFRFD
TAF
KRFD 011725Z 0118/0218 14012G17KT P6SM SCT080 BKN250
     FM020000 15008KT P6SM SCT150 BKN250
     FM020300 15007KT P6SM VCSH SCT050 BKN120
     FM020500 16006KT 5SM -SHRA BR BKN040 OVC120
     FM021400 18009KT P6SM SCT015 BKN025 OVC120=

USA.gov is the U.S. government's official web portal to all federal, state and local government web resources and services.